createdAt,value
2023-03-29T00:01:35.942Z,3.53
2023-03-29T00:04:04.793Z,4.50
2023-03-29T00:06:33.373Z,4.60
2023-03-29T00:09:05.487Z,4.13
2023-03-29T00:11:33.670Z,5.13
2023-03-29T00:14:01.500Z,5.35
2023-03-29T00:16:29.328Z,3.28
2023-03-29T00:18:57.209Z,7.47
2023-03-29T00:21:25.024Z,5.10
2023-03-29T00:23:52.839Z,4.75
2023-03-29T00:26:22.079Z,4.50
2023-03-29T00:28:50.130Z,6.38
2023-03-29T00:31:18.983Z,8.00
2023-03-29T00:33:47.085Z,7.00
2023-03-29T00:36:16.058Z,7.38
2023-03-29T00:38:43.909Z,7.78
2023-03-29T00:41:11.898Z,10.52
2023-03-29T00:43:54.065Z,6.05
2023-03-29T00:46:22.145Z,6.25
2023-03-29T00:48:50.696Z,7.53
2023-03-29T00:51:19.338Z,6.57
2023-03-29T00:53:49.696Z,7.00
2023-03-29T00:56:22.784Z,8.27
2023-03-29T00:58:54.113Z,8.30
2023-03-29T01:01:26.088Z,6.63
2023-03-29T01:03:56.648Z,6.82
2023-03-29T01:06:26.086Z,7.70
2023-03-29T01:08:55.747Z,6.90
2023-03-29T01:11:26.629Z,6.15
2023-03-29T01:13:57.648Z,7.75
2023-03-29T01:16:28.574Z,6.70
2023-03-29T01:18:59.345Z,6.53
2023-03-29T01:21:30.324Z,5.20
2023-03-29T01:24:07.696Z,8.25
2023-03-29T01:26:43.178Z,6.47
2023-03-29T01:29:14.498Z,6.07
2023-03-29T01:31:45.812Z,8.40
2023-03-29T01:34:16.263Z,6.85
2023-03-29T01:36:45.818Z,5.22
2023-03-29T01:39:13.622Z,5.68
2023-03-29T01:41:46.477Z,7.22
2023-03-29T01:44:18.829Z,5.65
2023-03-29T01:46:47.396Z,5.38
2023-03-29T01:49:18.780Z,5.00
2023-03-29T01:51:49.823Z,7.72
2023-03-29T01:54:19.961Z,4.47
2023-03-29T01:56:49.048Z,9.82
2023-03-29T01:59:20.923Z,6.53
2023-03-29T02:01:50.364Z,6.22
2023-03-29T02:04:22.022Z,7.20
2023-03-29T02:06:54.171Z,9.63
2023-03-29T02:09:23.361Z,5.35
2023-03-29T02:11:51.887Z,6.32
2023-03-29T02:14:21.231Z,6.50
2023-03-29T02:16:50.006Z,7.20
2023-03-29T02:19:18.653Z,6.22
2023-03-29T02:21:48.753Z,4.60
2023-03-29T02:24:18.284Z,5.00
2023-03-29T02:26:46.105Z,8.50
2023-03-29T02:29:14.089Z,6.72
2023-03-29T02:31:45.348Z,6.70
2023-03-29T02:34:15.985Z,8.90
2023-03-29T02:36:46.686Z,7.43
2023-03-29T02:39:16.185Z,7.50
2023-03-29T02:41:44.681Z,5.97
2023-03-29T02:44:15.110Z,5.18
2023-03-29T02:46:44.391Z,4.90
2023-03-29T02:49:12.957Z,5.28
2023-03-29T02:51:40.862Z,5.25
2023-03-29T02:54:10.642Z,4.90
2023-03-29T02:56:45.076Z,4.93
2023-03-29T03:01:42.830Z,5.18
2023-03-29T03:04:13.324Z,3.60
2023-03-29T03:06:41.782Z,4.88
2023-03-29T03:09:11.219Z,3.60
2023-03-29T03:11:42.266Z,4.20
2023-03-29T03:14:10.924Z,6.10
2023-03-29T03:16:38.684Z,3.22
2023-03-29T03:19:06.848Z,2.38
2023-03-29T03:21:37.757Z,3.80
2023-03-29T03:24:06.391Z,5.65
2023-03-29T03:26:36.056Z,4.78
2023-03-29T03:29:04.719Z,5.90
2023-03-29T03:31:57.097Z,2.80
2023-03-29T03:34:57.123Z,3.70
2023-03-29T03:37:28.662Z,3.40
2023-03-29T03:39:56.753Z,4.05
2023-03-29T03:42:24.994Z,3.17
2023-03-29T03:44:52.762Z,3.90
2023-03-29T03:47:43.877Z,2.28
2023-03-29T03:50:24.350Z,4.10
2023-03-29T03:52:53.504Z,2.75
2023-03-29T03:55:22.113Z,3.00
2023-03-29T03:58:03.949Z,2.58
2023-03-29T04:00:31.781Z,3.40
2023-03-29T04:03:17.213Z,3.97
2023-03-29T04:05:46.142Z,4.68
2023-03-29T04:08:17.310Z,3.58
2023-03-29T04:11:11.533Z,2.35
2023-03-29T04:13:42.335Z,1.90
2023-03-29T04:16:25.874Z,4.07
2023-03-29T04:18:54.542Z,2.78
2023-03-29T04:21:23.651Z,4.07
2023-03-29T04:23:52.720Z,3.75
2023-03-29T04:26:20.922Z,2.13
2023-03-29T04:28:51.934Z,3.92
2023-03-29T04:31:31.877Z,2.47
2023-03-29T04:34:23.186Z,3.50
2023-03-29T04:36:54.210Z,3.15
2023-03-29T04:39:32.104Z,2.58
2023-03-29T04:42:01.763Z,3.55
2023-03-29T04:44:33.443Z,4.03
2023-03-29T04:47:01.962Z,3.78
2023-03-29T04:49:48.711Z,2.72
2023-03-29T04:52:24.758Z,4.13
2023-03-29T04:54:54.542Z,2.75
2023-03-29T04:57:26.342Z,2.40
2023-03-29T05:00:02.990Z,2.55
2023-03-29T05:02:49.391Z,3.75
2023-03-29T05:05:17.298Z,2.80
2023-03-29T05:07:48.517Z,1.92
2023-03-29T05:10:20.494Z,5.15
2023-03-29T05:12:50.575Z,4.18
2023-03-29T05:15:18.636Z,3.20
2023-03-29T05:17:47.688Z,3.67
2023-03-29T05:20:17.587Z,4.68
2023-03-29T05:22:48.612Z,6.85
2023-03-29T05:25:37.755Z,3.13
2023-03-29T05:28:05.618Z,4.32
2023-03-29T05:30:33.842Z,3.42
2023-03-29T05:33:10.432Z,4.68
2023-03-29T05:35:39.916Z,3.35
2023-03-29T05:38:09.273Z,4.10
2023-03-29T05:40:38.762Z,6.78
2023-03-29T05:43:29.596Z,3.40
2023-03-29T05:45:57.730Z,4.15
2023-03-29T05:48:27.027Z,3.95
2023-03-29T05:50:56.484Z,6.82
2023-03-29T05:53:25.371Z,3.63
2023-03-29T05:55:54.459Z,5.03
2023-03-29T05:58:26.600Z,4.30
2023-03-29T06:00:54.570Z,4.30
2023-03-29T06:03:49.237Z,2.33
2023-03-29T06:06:19.075Z,4.35
2023-03-29T06:08:47.734Z,3.53
2023-03-29T06:11:27.873Z,5.13
2023-03-29T06:14:10.740Z,4.85
2023-03-29T06:16:47.578Z,3.80
2023-03-29T06:19:16.334Z,3.38
2023-03-29T06:21:44.543Z,4.18
2023-03-29T06:24:17.735Z,3.28
2023-03-29T06:26:53.355Z,3.13
2023-03-29T06:29:22.203Z,3.88
2023-03-29T06:31:52.117Z,2.13
2023-03-29T06:34:40.897Z,5.80
2023-03-29T06:37:27.515Z,2.35
2023-03-29T06:40:11.471Z,5.65
2023-03-29T06:42:45.366Z,4.18
2023-03-29T06:45:29.490Z,3.55
2023-03-29T06:47:59.754Z,4.07
2023-03-29T06:50:27.798Z,3.30
2023-03-29T06:53:05.205Z,3.75
2023-03-29T06:55:34.768Z,5.25
2023-03-29T06:58:17.381Z,3.83
2023-03-29T07:00:45.913Z,3.38
2023-03-29T07:03:39.207Z,3.55
2023-03-29T07:06:10.601Z,6.55
2023-03-29T07:08:43.716Z,6.50
2023-03-29T07:11:20.415Z,3.13
2023-03-29T07:14:00.835Z,2.70
2023-03-29T07:16:28.920Z,2.88
2023-03-29T07:19:32.474Z,3.78
2023-03-29T07:22:15.282Z,4.72
2023-03-29T07:24:50.723Z,8.07
2023-03-29T07:27:19.650Z,6.68
2023-03-29T07:29:51.510Z,7.55
2023-03-29T07:32:20.413Z,2.85
2023-03-29T07:35:09.406Z,3.88
2023-03-29T07:37:37.701Z,2.35
2023-03-29T07:40:12.575Z,5.10
2023-03-29T07:42:59.135Z,8.05
2023-03-29T07:45:32.649Z,7.47
2023-03-29T07:48:10.545Z,3.63
2023-03-29T07:51:01.966Z,5.65
2023-03-29T07:53:35.346Z,5.43
2023-03-29T07:56:06.507Z,4.63
2023-03-29T07:58:53.532Z,4.25
2023-03-29T08:01:23.350Z,7.05
2023-03-29T08:04:16.919Z,9.88
2023-03-29T08:07:08.376Z,9.15
2023-03-29T08:09:56.882Z,7.38
2023-03-29T08:12:38.546Z,5.13
2023-03-29T08:15:08.693Z,7.47
2023-03-29T08:17:39.886Z,5.25
2023-03-29T08:20:09.619Z,5.85
2023-03-29T08:22:39.563Z,5.75
2023-03-29T08:25:13.398Z,6.03
2023-03-29T08:27:45.814Z,5.80
2023-03-29T08:30:17.414Z,5.75
2023-03-29T08:32:49.914Z,5.82
2023-03-29T08:35:20.282Z,9.05
2023-03-29T08:38:02.705Z,6.20
2023-03-29T08:40:31.205Z,7.72
2023-03-29T08:43:17.898Z,3.05
2023-03-29T08:46:16.015Z,8.75
2023-03-29T08:48:50.302Z,7.22
2023-03-29T08:51:23.197Z,5.68
2023-03-29T08:53:53.232Z,5.90
2023-03-29T08:56:28.293Z,3.80
2023-03-29T08:59:16.545Z,4.03
2023-03-29T09:01:46.786Z,3.72
2023-03-29T09:04:21.521Z,4.78
2023-03-29T09:06:54.288Z,3.95
2023-03-29T09:09:30.338Z,6.88
2023-03-29T09:12:08.038Z,3.35
2023-03-29T09:14:50.137Z,3.15
2023-03-29T09:17:23.298Z,6.38
2023-03-29T09:19:57.710Z,3.40
2023-03-29T09:22:30.362Z,4.82
2023-03-29T09:25:03.267Z,12.07
2023-03-29T09:27:34.518Z,6.53
2023-03-29T09:32:57.664Z,5.88
2023-03-29T09:35:38.212Z,5.00
2023-03-29T09:38:09.457Z,2.28
2023-03-29T09:40:41.438Z,3.05
2023-03-29T09:43:19.765Z,6.70
2023-03-29T09:45:50.257Z,2.78
2023-03-29T09:48:20.806Z,3.60
2023-03-29T09:50:55.939Z,5.47
2023-03-29T09:53:24.280Z,6.25
2023-03-29T09:56:02.824Z,6.65
2023-03-29T09:58:47.535Z,8.07
2023-03-29T10:01:18.925Z,4.35
2023-03-29T10:03:52.370Z,9.32
2023-03-29T10:06:25.459Z,4.88
2023-03-29T10:08:58.966Z,6.35
2023-03-29T10:11:39.231Z,6.40
2023-03-29T10:14:12.404Z,3.58
2023-03-29T10:16:41.567Z,5.13
2023-03-29T10:19:19.974Z,3.42
2023-03-29T10:21:50.276Z,3.72
2023-03-29T10:24:22.165Z,3.78
2023-03-29T10:26:55.284Z,4.03
2023-03-29T10:29:23.637Z,11.30
2023-03-29T10:31:51.727Z,5.88
2023-03-29T10:34:19.730Z,3.80
2023-03-29T10:36:56.466Z,4.78
2023-03-29T10:39:26.130Z,2.95
2023-03-29T10:41:54.134Z,4.28
2023-03-29T10:44:27.406Z,3.40
2023-03-29T10:46:55.120Z,6.80
2023-03-29T10:49:25.492Z,5.35
2023-03-29T10:51:54.660Z,5.25
2023-03-29T10:54:24.193Z,4.72
2023-03-29T10:56:54.826Z,4.15
2023-03-29T10:59:25.491Z,5.43
2023-03-29T11:01:58.833Z,6.00
2023-03-29T11:04:31.921Z,4.85
2023-03-29T11:07:10.545Z,6.32
2023-03-29T11:09:44.010Z,3.97
2023-03-29T11:12:16.894Z,5.18
2023-03-29T11:14:51.506Z,3.10
2023-03-29T11:17:26.717Z,7.50
2023-03-29T11:19:57.497Z,5.15
2023-03-29T11:22:30.461Z,3.20
2023-03-29T11:25:16.092Z,4.88
2023-03-29T11:27:46.924Z,3.88
2023-03-29T11:30:18.101Z,6.63
2023-03-29T11:32:49.078Z,5.10
2023-03-29T11:35:23.387Z,3.28
2023-03-29T11:37:55.408Z,3.45
2023-03-29T11:40:37.247Z,6.13
2023-03-29T11:43:06.621Z,7.72
2023-03-29T11:45:39.924Z,3.20
2023-03-29T11:48:10.326Z,3.90
2023-03-29T11:50:42.154Z,3.83
2023-03-29T11:53:14.801Z,2.78
2023-03-29T11:55:46.098Z,6.05
2023-03-29T11:58:16.549Z,7.13
2023-03-29T12:00:46.580Z,4.20
2023-03-29T12:03:17.585Z,4.10
2023-03-29T12:05:48.133Z,3.95
2023-03-29T12:08:19.822Z,3.90
2023-03-29T12:10:51.039Z,3.85
2023-03-29T12:13:22.601Z,3.53
2023-03-29T12:15:53.533Z,4.22
2023-03-29T12:18:23.857Z,6.85
2023-03-29T12:20:53.819Z,5.32
2023-03-29T12:23:23.010Z,4.28
2023-03-29T12:25:54.085Z,6.88
2023-03-29T12:28:39.730Z,6.28
2023-03-29T12:31:11.173Z,5.53
2023-03-29T12:33:53.788Z,4.93
2023-03-29T12:36:48.181Z,4.93
2023-03-29T12:39:38.607Z,3.85
2023-03-29T12:42:25.171Z,3.08
2023-03-29T12:45:14.915Z,7.57
2023-03-29T12:47:44.915Z,4.85
2023-03-29T12:50:19.619Z,3.15
2023-03-29T12:52:47.771Z,5.97
2023-03-29T12:55:23.163Z,4.20
2023-03-29T12:57:59.120Z,3.33
2023-03-29T13:00:28.291Z,3.92
2023-03-29T13:03:00.783Z,5.47
2023-03-29T13:05:30.322Z,4.60
2023-03-29T13:07:58.119Z,4.65
2023-03-29T13:10:38.592Z,3.67
2023-03-29T13:13:12.274Z,4.22
2023-03-29T13:15:40.128Z,2.45
2023-03-29T13:18:12.987Z,4.88
2023-03-29T13:20:46.279Z,8.18
2023-03-29T13:23:24.516Z,4.93
2023-03-29T13:26:00.270Z,4.28
2023-03-29T13:28:33.328Z,6.68
2023-03-29T13:31:03.530Z,3.55
2023-03-29T13:33:45.899Z,4.20
2023-03-29T13:36:16.716Z,6.15
2023-03-29T13:38:47.012Z,5.05
2023-03-29T13:41:27.693Z,5.10
2023-03-29T13:43:56.569Z,5.88
2023-03-29T13:46:26.280Z,6.40
2023-03-29T13:49:04.787Z,7.30
2023-03-29T13:51:40.443Z,7.18
2023-03-29T13:54:14.582Z,8.05
2023-03-29T13:56:51.460Z,7.38
2023-03-29T13:59:20.956Z,6.55
2023-03-29T14:01:51.768Z,6.25
2023-03-29T14:04:23.828Z,3.63
2023-03-29T14:06:53.236Z,8.10
2023-03-29T14:09:21.719Z,10.15
2023-03-29T14:11:51.116Z,5.53
2023-03-29T14:14:22.557Z,4.85
2023-03-29T14:16:50.615Z,7.70
2023-03-29T14:19:20.148Z,3.05
2023-03-29T14:21:51.408Z,5.60
2023-03-29T14:24:21.689Z,8.07
2023-03-29T14:26:50.877Z,7.50
2023-03-29T14:29:18.760Z,5.82
2023-03-29T14:31:46.745Z,7.63
2023-03-29T14:34:15.841Z,5.05
2023-03-29T14:36:45.474Z,4.82
2023-03-29T14:39:16.262Z,5.03
2023-03-29T14:41:47.908Z,6.22
2023-03-29T14:44:17.260Z,5.22
2023-03-29T14:46:46.809Z,6.95
2023-03-29T14:49:16.153Z,5.95
2023-03-29T14:51:44.481Z,5.38
2023-03-29T14:54:18.744Z,6.07
2023-03-29T14:56:46.667Z,9.77
2023-03-29T14:59:24.245Z,6.40
2023-03-29T15:01:52.301Z,6.70
2023-03-29T15:04:19.990Z,5.35
2023-03-29T15:06:51.722Z,7.65
2023-03-29T15:09:21.761Z,4.88
2023-03-29T15:11:53.642Z,6.70
2023-03-29T15:14:23.542Z,11.32
2023-03-29T15:16:57.264Z,11.65
2023-03-29T15:19:27.080Z,6.95
2023-03-29T15:21:55.075Z,7.25
2023-03-29T15:24:24.257Z,7.95
2023-03-29T15:27:03.567Z,4.68
2023-03-29T15:29:37.059Z,3.63
2023-03-29T15:32:05.538Z,7.25
2023-03-29T15:34:33.811Z,7.80
2023-03-29T15:37:02.439Z,9.63
2023-03-29T15:39:30.367Z,7.80
2023-03-29T15:41:58.300Z,8.13
2023-03-29T15:44:28.073Z,6.45
2023-03-29T15:46:59.680Z,8.32
2023-03-29T15:49:28.072Z,7.93
2023-03-29T15:51:55.827Z,10.60
2023-03-29T15:54:24.843Z,9.05
2023-03-29T15:56:56.688Z,10.80
2023-03-29T15:59:24.576Z,10.65
2023-03-29T16:01:54.872Z,14.75
2023-03-29T16:04:25.828Z,9.13
2023-03-29T16:06:54.592Z,11.95
2023-03-29T16:09:23.848Z,10.18
2023-03-29T16:11:51.622Z,15.45
2023-03-29T16:14:23.046Z,9.10
2023-03-29T16:16:51.103Z,9.60
2023-03-29T16:19:19.811Z,12.32
2023-03-29T16:21:50.924Z,11.13
2023-03-29T16:24:19.947Z,28.08
2023-03-29T16:26:48.112Z,34.42
2023-03-29T16:29:17.459Z,30.70
2023-03-29T16:31:47.495Z,25.60
2023-03-29T16:34:16.232Z,35.97
2023-03-29T16:36:44.344Z,26.80
2023-03-29T16:39:14.167Z,18.77
2023-03-29T16:41:42.869Z,19.63
2023-03-29T16:44:13.099Z,14.82
2023-03-29T16:46:41.522Z,19.65
2023-03-29T16:49:14.206Z,14.05
2023-03-29T16:51:42.577Z,11.73
2023-03-29T16:54:11.007Z,9.70
2023-03-29T16:56:40.271Z,15.77
2023-03-29T16:59:10.493Z,10.00
2023-03-29T17:01:38.777Z,12.32
2023-03-29T17:04:07.024Z,11.50
2023-03-29T17:06:35.153Z,10.40
2023-03-29T17:09:03.380Z,12.20
2023-03-29T17:11:31.458Z,14.43
2023-03-29T17:14:01.079Z,22.10
2023-03-29T17:16:29.460Z,31.17
2023-03-29T17:19:00.205Z,25.38
2023-03-29T17:21:29.748Z,23.63
2023-03-29T17:23:57.538Z,13.10
2023-03-29T17:26:26.024Z,12.98
2023-03-29T17:28:55.536Z,37.58
2023-03-29T17:31:24.683Z,26.67
2023-03-29T17:33:52.422Z,23.33
2023-03-29T17:36:24.313Z,15.52
2023-03-29T17:38:54.630Z,23.65
2023-03-29T17:41:23.959Z,29.60
2023-03-29T17:43:54.165Z,25.92
2023-03-29T17:46:24.789Z,20.65
2023-03-29T17:48:53.895Z,21.42
2023-03-29T17:51:25.055Z,18.38
2023-03-29T17:53:52.912Z,18.90
2023-03-29T17:56:21.598Z,33.55
2023-03-29T17:58:50.078Z,21.52
2023-03-29T18:01:20.450Z,19.33
2023-03-29T18:03:49.695Z,20.98
2023-03-29T18:06:20.901Z,12.60
2023-03-29T18:08:49.086Z,18.58
2023-03-29T18:11:21.957Z,21.73
2023-03-29T18:13:50.096Z,16.13
2023-03-29T18:16:17.974Z,23.67
2023-03-29T18:18:46.378Z,25.58
2023-03-29T18:21:16.172Z,42.88
2023-03-29T18:23:49.036Z,21.55
2023-03-29T18:26:17.474Z,17.90
2023-03-29T18:28:47.630Z,17.23
2023-03-29T18:31:15.786Z,11.70
2023-03-29T18:33:43.675Z,13.85
2023-03-29T18:36:13.305Z,11.18
2023-03-29T18:38:43.320Z,12.50
2023-03-29T18:41:13.654Z,10.43
2023-03-29T18:43:43.221Z,10.95
2023-03-29T18:46:11.173Z,11.55
2023-03-29T18:48:39.816Z,9.10
2023-03-29T18:51:08.408Z,9.73
2023-03-29T18:53:36.555Z,11.93
2023-03-29T18:56:04.928Z,12.57
2023-03-29T18:58:34.670Z,13.73
2023-03-29T19:01:04.223Z,10.02
2023-03-29T19:03:32.437Z,7.95
2023-03-29T19:06:00.339Z,7.88
2023-03-29T19:08:28.288Z,10.82
2023-03-29T19:11:01.577Z,12.32
2023-03-29T19:13:31.100Z,10.05
2023-03-29T19:16:03.710Z,13.88
2023-03-29T19:18:31.621Z,9.50
2023-03-29T19:21:01.017Z,14.25
2023-03-29T19:23:28.835Z,9.20
2023-03-29T19:25:57.172Z,10.82
2023-03-29T19:28:27.300Z,10.63
2023-03-29T19:30:55.942Z,7.88
2023-03-29T19:33:25.253Z,11.35
2023-03-29T19:35:53.150Z,16.33
2023-03-29T19:38:21.081Z,14.80
2023-03-29T19:40:49.739Z,11.18
2023-03-29T19:43:18.326Z,10.98
2023-03-29T19:45:46.539Z,11.05
2023-03-29T19:48:22.312Z,19.92
2023-03-29T19:50:52.899Z,16.80
2023-03-29T19:53:21.260Z,17.17
2023-03-29T19:55:49.508Z,10.77
2023-03-29T19:58:17.401Z,12.15
2023-03-29T20:00:45.317Z,12.23
2023-03-29T20:03:13.979Z,17.10
2023-03-29T20:05:42.394Z,15.77
2023-03-29T20:08:11.497Z,15.70
2023-03-29T20:10:39.845Z,17.20
2023-03-29T20:13:07.858Z,15.38
2023-03-29T20:15:37.032Z,15.07
2023-03-29T20:18:04.989Z,14.30
2023-03-29T20:20:35.724Z,14.55
2023-03-29T20:23:05.269Z,13.88
2023-03-29T20:25:36.270Z,17.13
2023-03-29T20:28:04.752Z,16.30
2023-03-29T20:30:32.555Z,28.17
2023-03-29T20:33:01.820Z,31.60
2023-03-29T20:35:29.691Z,13.10
2023-03-29T20:37:57.526Z,13.60
2023-03-29T20:40:25.357Z,10.95
2023-03-29T20:42:56.229Z,11.52
2023-03-29T20:45:26.243Z,12.00
2023-03-29T20:48:03.258Z,9.80
2023-03-29T20:50:31.074Z,13.95
2023-03-29T20:53:02.311Z,14.00
2023-03-29T20:55:33.116Z,13.60
2023-03-29T20:58:02.826Z,13.70
2023-03-29T21:00:32.298Z,11.88
2023-03-29T21:03:00.291Z,15.07
2023-03-29T21:05:28.920Z,12.80
2023-03-29T21:07:56.988Z,29.33
2023-03-29T21:10:26.188Z,15.18
2023-03-29T21:13:00.029Z,13.65
2023-03-29T21:15:31.076Z,15.10
2023-03-29T21:17:59.153Z,16.70
2023-03-29T21:20:27.594Z,13.43
2023-03-29T21:22:55.522Z,10.27
2023-03-29T21:25:23.322Z,14.93
2023-03-29T21:27:51.212Z,13.75
2023-03-29T21:30:18.992Z,11.60
2023-03-29T21:32:48.296Z,12.38
2023-03-29T21:35:16.520Z,15.18
2023-03-29T21:37:44.286Z,10.18
2023-03-29T21:40:12.661Z,10.95
2023-03-29T21:42:40.618Z,16.60
2023-03-29T21:45:09.445Z,15.45
2023-03-29T21:47:37.361Z,14.73
2023-03-29T21:50:07.660Z,13.07
2023-03-29T21:52:37.797Z,14.70
2023-03-29T21:55:06.233Z,10.98
2023-03-29T21:57:35.713Z,9.15
2023-03-29T22:00:05.232Z,14.13
2023-03-29T22:02:34.978Z,14.25
2023-03-29T22:05:04.682Z,14.30
2023-03-29T22:07:35.238Z,13.25
2023-03-29T22:10:04.252Z,11.57
2023-03-29T22:12:34.490Z,14.85
2023-03-29T22:15:02.748Z,17.55
2023-03-29T22:17:30.661Z,16.92
2023-03-29T22:19:58.436Z,10.52
2023-03-29T22:22:26.408Z,12.07
2023-03-29T22:24:55.832Z,15.93
2023-03-29T22:27:23.793Z,16.08
2023-03-29T22:29:52.230Z,11.13
2023-03-29T22:32:20.110Z,11.98
2023-03-29T22:34:47.887Z,9.98
2023-03-29T22:37:16.205Z,16.73
2023-03-29T22:39:44.014Z,14.40
2023-03-29T22:42:13.109Z,14.38
2023-03-29T22:44:41.219Z,12.65
2023-03-29T22:47:09.068Z,9.65
2023-03-29T22:49:36.870Z,14.35
2023-03-29T22:52:05.078Z,20.10
2023-03-29T22:54:32.851Z,14.63
2023-03-29T22:57:00.832Z,16.50
2023-03-29T22:59:32.729Z,14.27
2023-03-29T23:02:00.597Z,19.95
2023-03-29T23:04:28.555Z,9.18
2023-03-29T23:06:56.343Z,13.98
2023-03-29T23:09:24.149Z,15.55
2023-03-29T23:11:51.917Z,12.73
2023-03-29T23:14:19.937Z,14.45
2023-03-29T23:16:50.449Z,12.93
2023-03-29T23:19:18.190Z,10.32
2023-03-29T23:21:46.042Z,10.90
2023-03-29T23:24:13.772Z,10.40
2023-03-29T23:26:41.676Z,11.70
2023-03-29T23:29:09.400Z,12.77
2023-03-29T23:31:37.816Z,16.70
2023-03-29T23:34:07.035Z,16.10
2023-03-29T23:36:34.782Z,13.38
2023-03-29T23:39:02.584Z,11.60
2023-03-29T23:41:30.636Z,11.35
2023-03-29T23:43:58.811Z,19.17
2023-03-29T23:46:26.573Z,17.38
2023-03-29T23:48:54.314Z,14.07
2023-03-29T23:51:28.486Z,12.43
2023-03-29T23:53:56.864Z,13.75
2023-03-29T23:56:24.918Z,14.77
2023-03-29T23:58:52.871Z,16.80
